sensor_id;sensor_type;location;lat;lon;timestamp;pressure;altitude;pressure_sealevel;temperature;humidity
25638;BME280;13496;51.040;13.680;2022-12-18T00:02:40;101303.81;;;15.19;53.82
25638;BME280;13496;51.040;13.680;2022-12-18T00:07:41;101309.19;;;15.17;53.90
25638;BME280;13496;51.040;13.680;2022-12-18T00:12:43;101324.06;;;15.17;53.75
25638;BME280;13496;51.040;13.680;2022-12-18T00:17:45;101327.59;;;15.16;53.70
25638;BME280;13496;51.040;13.680;2022-12-18T00:22:46;101328.69;;;15.13;53.75
25638;BME280;13496;51.040;13.680;2022-12-18T00:27:48;101325.94;;;15.15;53.80
25638;BME280;13496;51.040;13.680;2022-12-18T00:32:50;101320.00;;;15.13;53.80
25638;BME280;13496;51.040;13.680;2022-12-18T00:37:52;101334.88;;;15.12;53.81
25638;BME280;13496;51.040;13.680;2022-12-18T00:42:53;101334.03;;;15.12;53.69
25638;BME280;13496;51.040;13.680;2022-12-18T00:47:58;101348.06;;;15.11;53.69
25638;BME280;13496;51.040;13.680;2022-12-18T00:53:00;101346.44;;;15.10;53.66
25638;BME280;13496;51.040;13.680;2022-12-18T00:58:01;101343.81;;;15.10;53.62
25638;BME280;13496;51.040;13.680;2022-12-18T01:03:04;101356.06;;;15.09;53.62
25638;BME280;13496;51.040;13.680;2022-12-18T01:08:06;101359.59;;;15.08;53.69
25638;BME280;13496;51.040;13.680;2022-12-18T01:13:08;101360.56;;;15.07;53.65
25638;BME280;13496;51.040;13.680;2022-12-18T01:18:09;101364.97;;;15.07;53.67
25638;BME280;13496;51.040;13.680;2022-12-18T01:23:11;101364.97;;;15.07;53.55
25638;BME280;13496;51.040;13.680;2022-12-18T01:28:13;101373.78;;;15.06;53.50
25638;BME280;13496;51.040;13.680;2022-12-18T01:33:16;101372.09;;;15.05;53.65
25638;BME280;13496;51.040;13.680;2022-12-18T01:38:17;101375.66;;;15.04;53.51
25638;BME280;13496;51.040;13.680;2022-12-18T01:43:19;101362.75;;;15.02;53.55
25638;BME280;13496;51.040;13.680;2022-12-18T01:48:21;101365.34;;;15.02;53.60
25638;BME280;13496;51.040;13.680;2022-12-18T01:53:23;101369.72;;;15.01;53.44
25638;BME280;13496;51.040;13.680;2022-12-18T01:59:04;101377.56;;;15.01;53.42
25638;BME280;13496;51.040;13.680;2022-12-18T02:04:25;101376.88;;;14.99;53.44
25638;BME280;13496;51.040;13.680;2022-12-18T02:09:39;101383.06;;;14.98;53.40
25638;BME280;13496;51.040;13.680;2022-12-18T02:15:00;101372.59;;;14.98;53.43
25638;BME280;13496;51.040;13.680;2022-12-18T02:20:14;101369.13;;;14.98;53.35
25638;BME280;13496;51.040;13.680;2022-12-18T02:25:52;101377.13;;;14.96;53.51
25638;BME280;13496;51.040;13.680;2022-12-18T02:30:58;101389.34;;;14.96;53.32
25638;BME280;13496;51.040;13.680;2022-12-18T02:36:04;101399.00;;;14.95;53.37
25638;BME280;13496;51.040;13.680;2022-12-18T02:41:08;101384.38;;;14.93;53.27
25638;BME280;13496;51.040;13.680;2022-12-18T02:51:41;101384.50;;;14.91;53.26
25638;BME280;13496;51.040;13.680;2022-12-18T02:56:51;101386.28;;;14.91;53.28
25638;BME280;13496;51.040;13.680;2022-12-18T03:07:35;101395.19;;;14.88;53.42
25638;BME280;13496;51.040;13.680;2022-12-18T03:12:47;101395.19;;;14.88;53.21
25638;BME280;13496;51.040;13.680;2022-12-18T03:17:59;101398.63;;;14.89;53.12
25638;BME280;13496;51.040;13.680;2022-12-18T03:23:07;101398.78;;;14.87;53.05
25638;BME280;13496;51.040;13.680;2022-12-18T03:28:14;101406.63;;;14.87;53.05
25638;BME280;13496;51.040;13.680;2022-12-18T03:33:25;101405.91;;;14.85;53.13
25638;BME280;13496;51.040;13.680;2022-12-18T03:38:30;101404.25;;;14.84;53.08
25638;BME280;13496;51.040;13.680;2022-12-18T03:43:46;101404.25;;;14.84;53.05
25638;BME280;13496;51.040;13.680;2022-12-18T03:49:00;101407.09;;;14.81;53.09
25638;BME280;13496;51.040;13.680;2022-12-18T03:54:06;101410.53;;;14.82;52.97
25638;BME280;13496;51.040;13.680;2022-12-18T03:59:15;101416.72;;;14.81;53.14
25638;BME280;13496;51.040;13.680;2022-12-18T04:04:19;101415.06;;;14.80;53.01
25638;BME280;13496;51.040;13.680;2022-12-18T04:09:22;101416.13;;;14.77;53.00
25638;BME280;13496;51.040;13.680;2022-12-18T04:14:26;101422.06;;;14.79;52.98
25638;BME280;13496;51.040;13.680;2022-12-18T04:19:30;101423.84;;;14.79;52.97
25638;BME280;13496;51.040;13.680;2022-12-18T04:24:33;101428.25;;;14.78;53.01
25638;BME280;13496;51.040;13.680;2022-12-18T04:29:42;101427.53;;;14.76;52.94
25638;BME280;13496;51.040;13.680;2022-12-18T04:34:44;101426.69;;;14.75;52.94
25638;BME280;13496;51.040;13.680;2022-12-18T04:39:46;101432.06;;;14.74;52.95
25638;BME280;13496;51.040;13.680;2022-12-18T04:44:56;101442.50;;;14.74;52.91
25638;BME280;13496;51.040;13.680;2022-12-18T04:49:57;101455.56;;;14.74;52.83
25638;BME280;13496;51.040;13.680;2022-12-18T04:54:59;101442.50;;;14.74;52.84
25638;BME280;13496;51.040;13.680;2022-12-18T05:00:01;101427.06;;;14.71;52.87
25638;BME280;13496;51.040;13.680;2022-12-18T05:05:03;101443.47;;;14.73;52.75
25638;BME280;13496;51.040;13.680;2022-12-18T05:10:06;101436.69;;;14.70;52.74
25638;BME280;13496;51.040;13.680;2022-12-18T05:15:08;101439.44;;;14.69;52.83
25638;BME280;13496;51.040;13.680;2022-12-18T05:20:10;101436.81;;;14.69;52.71
25638;BME280;13496;51.040;13.680;2022-12-18T05:25:12;101439.66;;;14.66;52.88
25638;BME280;13496;51.040;13.680;2022-12-18T05:30:14;101446.53;;;14.67;52.72
25638;BME280;13496;51.040;13.680;2022-12-18T05:35:16;101439.66;;;14.66;52.84
25638;BME280;13496;51.040;13.680;2022-12-18T05:40:18;101436.34;;;14.64;52.84
25638;BME280;13496;51.040;13.680;2022-12-18T05:45:19;101443.25;;;14.65;52.60
25638;BME280;13496;51.040;13.680;2022-12-18T05:50:21;101439.91;;;14.63;52.65
25638;BME280;13496;51.040;13.680;2022-12-18T05:55:23;101439.91;;;14.63;52.73
25638;BME280;13496;51.040;13.680;2022-12-18T06:00:25;101452.25;;;14.61;52.78
25638;BME280;13496;51.040;13.680;2022-12-18T06:05:27;101455.56;;;14.63;52.63
25638;BME280;13496;51.040;13.680;2022-12-18T06:10:29;101461.75;;;14.62;52.64
25638;BME280;13496;51.040;13.680;2022-12-18T06:15:31;101465.31;;;14.61;52.69
25638;BME280;13496;51.040;13.680;2022-12-18T06:20:33;101478.34;;;14.61;52.72
25638;BME280;13496;51.040;13.680;2022-12-18T06:25:37;101480.28;;;14.59;52.48
25638;BME280;13496;51.040;13.680;2022-12-18T06:30:39;101481.22;;;14.58;52.55
25638;BME280;13496;51.040;13.680;2022-12-18T06:35:41;101476.94;;;14.57;52.63
25638;BME280;13496;51.040;13.680;2022-12-18T06:40:43;101477.75;;;14.57;52.59
25638;BME280;13496;51.040;13.680;2022-12-18T06:45:44;101475.16;;;14.57;52.51
25638;BME280;13496;51.040;13.680;2022-12-18T06:50:47;101490.00;;;14.57;52.52
25638;BME280;13496;51.040;13.680;2022-12-18T06:55:49;101484.78;;;14.57;52.58
25638;BME280;13496;51.040;13.680;2022-12-18T07:00:51;101503.06;;;14.57;52.46
25638;BME280;13496;51.040;13.680;2022-12-18T07:05:53;101499.75;;;14.55;52.43
25638;BME280;13496;51.040;13.680;2022-12-18T07:10:54;101510.19;;;14.55;52.56
25638;BME280;13496;51.040;13.680;2022-12-18T07:16:06;101506.84;;;14.52;52.44
25638;BME280;13496;51.040;13.680;2022-12-18T07:21:16;101505.81;;;14.55;52.44
25638;BME280;13496;51.040;13.680;2022-12-18T07:26:19;101511.97;;;14.54;52.31
25638;BME280;13496;51.040;13.680;2022-12-18T07:31:21;101518.03;;;14.55;52.31
25638;BME280;13496;51.040;13.680;2022-12-18T07:36:23;101536.31;;;14.55;52.50
25638;BME280;13496;51.040;13.680;2022-12-18T07:41:25;101533.72;;;14.55;52.47
25638;BME280;13496;51.040;13.680;2022-12-18T07:46:26;101532.06;;;14.54;52.48
25638;BME280;13496;51.040;13.680;2022-12-18T07:51:28;101545.81;;;14.56;52.38
25638;BME280;13496;51.040;13.680;2022-12-18T07:56:30;101537.28;;;14.54;52.34
25638;BME280;13496;51.040;13.680;2022-12-18T08:01:32;101546.53;;;14.58;52.31
25638;BME280;13496;51.040;13.680;2022-12-18T08:06:34;101534.16;;;14.60;52.49
25638;BME280;13496;51.040;13.680;2022-12-18T08:11:36;101532.06;;;14.65;52.23
25638;BME280;13496;51.040;13.680;2022-12-18T08:16:37;101521.94;;;14.71;52.23
25638;BME280;13496;51.040;13.680;2022-12-18T08:21:39;101522.06;;;14.81;51.95
25638;BME280;13496;51.040;13.680;2022-12-18T08:26:41;101514.09;;;14.94;51.68
25638;BME280;13496;51.040;13.680;2022-12-18T08:31:43;101521.66;;;15.08;51.38
25638;BME280;13496;51.040;13.680;2022-12-18T08:36:44;101523.19;;;15.22;51.16
25638;BME280;13496;51.040;13.680;2022-12-18T08:41:46;101520.31;;;15.36;50.91
25638;BME280;13496;51.040;13.680;2022-12-18T08:47:08;101528.00;;;15.49;50.76
25638;BME280;13496;51.040;13.680;2022-12-18T08:52:09;101523.81;;;15.58;50.60
25638;BME280;13496;51.040;13.680;2022-12-18T08:57:11;101522.59;;;15.62;50.57
25638;BME280;13496;51.040;13.680;2022-12-18T09:02:13;101539.75;;;15.66;50.72
25638;BME280;13496;51.040;13.680;2022-12-18T09:07:14;101530.09;;;15.66;50.63
25638;BME280;13496;51.040;13.680;2022-12-18T09:12:16;101522.59;;;15.62;50.63
25638;BME280;13496;51.040;13.680;2022-12-18T09:17:18;101542.38;;;15.55;51.03
25638;BME280;13496;51.040;13.680;2022-12-18T09:22:19;101552.25;;;15.51;51.44
25638;BME280;13496;51.040;13.680;2022-12-18T09:27:21;101570.66;;;15.49;51.28
25638;BME280;13496;51.040;13.680;2022-12-18T09:32:23;101554.28;;;15.47;51.54
25638;BME280;13496;51.040;13.680;2022-12-18T09:37:24;101564.75;;;15.47;51.57
25638;BME280;13496;51.040;13.680;2022-12-18T09:42:26;101553.31;;;15.48;51.73
25638;BME280;13496;51.040;13.680;2022-12-18T09:47:35;101554.97;;;15.49;51.81
25638;BME280;13496;51.040;13.680;2022-12-18T09:52:45;101549.50;;;15.53;51.93
25638;BME280;13496;51.040;13.680;2022-12-18T09:57:53;101544.03;;;15.56;51.83
25638;BME280;13496;51.040;13.680;2022-12-18T10:03:02;101543.06;;;15.57;51.89
25638;BME280;13496;51.040;13.680;2022-12-18T10:08:16;101523.81;;;15.58;51.92
25638;BME280;13496;51.040;13.680;2022-12-18T10:18:58;101502.97;;;15.67;52.51
25638;BME280;13496;51.040;13.680;2022-12-18T10:24:12;101498.91;;;15.75;52.55
25638;BME280;13496;51.040;13.680;2022-12-18T10:29:16;101479.38;;;15.79;52.76
25638;BME280;13496;51.040;13.680;2022-12-18T10:34:18;101477.09;;;15.85;52.67
25638;BME280;13496;51.040;13.680;2022-12-18T10:39:22;101471.28;;;16.03;52.36
25638;BME280;13496;51.040;13.680;2022-12-18T10:44:25;101450.34;;;16.33;51.57
25638;BME280;13496;51.040;13.680;2022-12-18T10:49:30;101455.25;;;16.88;50.14
25638;BME280;13496;51.040;13.680;2022-12-18T10:54:33;101457.91;;;17.36;49.15
25638;BME280;13496;51.040;13.680;2022-12-18T10:59:53;101460.41;;;17.77;48.15
25638;BME280;13496;51.040;13.680;2022-12-18T11:04:56;101450.78;;;18.05;47.29
25638;BME280;13496;51.040;13.680;2022-12-18T11:10:01;101447.44;;;18.22;47.06
25638;BME280;13496;51.040;13.680;2022-12-18T11:15:03;101435.41;;;18.20;46.84
25638;BME280;13496;51.040;13.680;2022-12-18T11:20:17;101431.22;;;17.70;48.14
25638;BME280;13496;51.040;13.680;2022-12-18T11:25:20;101430.28;;;17.42;49.10
25638;BME280;13496;51.040;13.680;2022-12-18T11:30:28;101427.94;;;17.20;49.50
25638;BME280;13496;51.040;13.680;2022-12-18T11:40:58;101415.78;;;16.89;50.28
25638;BME280;13496;51.040;13.680;2022-12-18T11:46:05;101428.72;;;16.81;50.52
25638;BME280;13496;51.040;13.680;2022-12-18T11:51:12;101425.00;;;16.74;50.55
25638;BME280;13496;51.040;13.680;2022-12-18T11:56:43;101432.66;;;16.66;50.87
25638;BME280;13496;51.040;13.680;2022-12-18T12:01:52;101434.03;;;16.60;51.18
25638;BME280;13496;51.040;13.680;2022-12-18T12:07:19;101436.34;;;16.54;51.16
25638;BME280;13496;51.040;13.680;2022-12-18T12:12:45;101449.72;;;16.51;51.60
25638;BME280;13496;51.040;13.680;2022-12-18T12:23:13;101453.13;;;16.41;51.63
25638;BME280;13496;51.040;13.680;2022-12-18T12:39:48;101467.72;;;16.34;51.88
25638;BME280;13496;51.040;13.680;2022-12-18T12:44:53;101475.72;;;16.33;51.84
25638;BME280;13496;51.040;13.680;2022-12-18T12:49:58;101461.91;;;16.31;51.77
25638;BME280;13496;51.040;13.680;2022-12-18T12:55:04;101447.16;;;16.30;51.75
25638;BME280;13496;51.040;13.680;2022-12-18T13:00:29;101453.47;;;16.27;51.88
25638;BME280;13496;51.040;13.680;2022-12-18T13:05:40;101442.31;;;16.25;51.82
25638;BME280;13496;51.040;13.680;2022-12-18T13:10:46;101442.44;;;16.24;51.96
25638;BME280;13496;51.040;13.680;2022-12-18T13:16:07;101431.28;;;16.21;52.04
25638;BME280;13496;51.040;13.680;2022-12-18T13:21:30;101434.84;;;16.20;51.88
25638;BME280;13496;51.040;13.680;2022-12-18T13:26:32;101443.78;;;16.18;51.87
25638;BME280;13496;51.040;13.680;2022-12-18T13:36:43;101447.50;;;16.15;51.80
25638;BME280;13496;51.040;13.680;2022-12-18T13:41:46;101443.34;;;16.13;52.00
25638;BME280;13496;51.040;13.680;2022-12-18T13:46:50;101437.28;;;16.12;52.12
25638;BME280;13496;51.040;13.680;2022-12-18T13:51:54;101448.72;;;16.11;51.99
25638;BME280;13496;51.040;13.680;2022-12-18T13:56:56;101447.88;;;16.11;51.79
25638;BME280;13496;51.040;13.680;2022-12-18T14:02:00;101440.03;;;16.11;51.63
25638;BME280;13496;51.040;13.680;2022-12-18T14:07:15;101442.81;;;16.09;51.93
25638;BME280;13496;51.040;13.680;2022-12-18T14:12:22;101453.38;;;16.08;51.90
25638;BME280;13496;51.040;13.680;2022-12-18T14:17:43;101450.75;;;16.08;51.96
25638;BME280;13496;51.040;13.680;2022-12-18T14:22:47;101449.94;;;16.07;52.09
25638;BME280;13496;51.040;13.680;2022-12-18T14:28:04;101435.31;;;16.05;51.94
25638;BME280;13496;51.040;13.680;2022-12-18T14:33:11;101415.34;;;16.04;52.00
25638;BME280;13496;51.040;13.680;2022-12-18T14:38:17;101417.25;;;16.02;51.99
25638;BME280;13496;51.040;13.680;2022-12-18T14:43:21;101418.34;;;15.99;52.48
25638;BME280;13496;51.040;13.680;2022-12-18T14:48:39;101419.44;;;15.96;52.28
25638;BME280;13496;51.040;13.680;2022-12-18T14:53:44;101424.81;;;15.95;52.28
25638;BME280;13496;51.040;13.680;2022-12-18T14:59:13;101424.09;;;15.93;52.65
25638;BME280;13496;51.040;13.680;2022-12-18T15:04:38;101424.34;;;15.90;52.31
25638;BME280;13496;51.040;13.680;2022-12-18T15:15:03;101422.84;;;15.87;52.48
25638;BME280;13496;51.040;13.680;2022-12-18T15:20:10;101428.31;;;15.84;52.60
25638;BME280;13496;51.040;13.680;2022-12-18T15:30:33;101407.56;;;15.92;51.61
25638;BME280;13496;51.040;13.680;2022-12-18T15:35:34;101413.63;;;15.93;51.79
25638;BME280;13496;51.040;13.680;2022-12-18T15:40:36;101388.53;;;15.90;51.88
25638;BME280;13496;51.040;13.680;2022-12-18T15:45:38;101395.56;;;15.90;51.94
25638;BME280;13496;51.040;13.680;2022-12-18T15:50:40;101402.59;;;15.89;52.01
25638;BME280;13496;51.040;13.680;2022-12-18T15:55:41;101414.03;;;15.88;52.37
25638;BME280;13496;51.040;13.680;2022-12-18T16:01:02;101399.38;;;15.86;51.98
25638;BME280;13496;51.040;13.680;2022-12-18T16:06:04;101395.94;;;15.85;52.16
25638;BME280;13496;51.040;13.680;2022-12-18T16:11:16;101376.91;;;15.83;52.29
25638;BME280;13496;51.040;13.680;2022-12-18T16:16:21;101389.06;;;15.84;52.38
25638;BME280;13496;51.040;13.680;2022-12-18T16:21:23;101392.75;;;15.82;52.40
25638;BME280;13496;51.040;13.680;2022-12-18T16:26:24;101398.13;;;15.80;52.52
25638;BME280;13496;51.040;13.680;2022-12-18T16:31:26;101378.13;;;15.79;52.32
25638;BME280;13496;51.040;13.680;2022-12-18T16:36:28;101389.56;;;15.78;52.69
25638;BME280;13496;51.040;13.680;2022-12-18T16:41:29;101384.47;;;15.77;52.66
25638;BME280;13496;51.040;13.680;2022-12-18T16:46:34;101373.19;;;15.76;52.65
25638;BME280;13496;51.040;13.680;2022-12-18T16:51:36;101388.03;;;15.76;52.65
25638;BME280;13496;51.040;13.680;2022-12-18T16:56:38;101381.97;;;15.75;52.74
25638;BME280;13496;51.040;13.680;2022-12-18T17:01:40;101377.72;;;15.74;52.80
25638;BME280;13496;51.040;13.680;2022-12-18T17:06:43;101367.25;;;15.74;52.75
25638;BME280;13496;51.040;13.680;2022-12-18T17:11:45;101373.44;;;15.73;52.75
25638;BME280;13496;51.040;13.680;2022-12-18T17:16:47;101363.09;;;15.71;52.77
25638;BME280;13496;51.040;13.680;2022-12-18T17:21:50;101354.41;;;15.71;52.63
25638;BME280;13496;51.040;13.680;2022-12-18T17:26:52;101354.41;;;15.71;52.72
25638;BME280;13496;51.040;13.680;2022-12-18T17:31:53;101356.06;;;15.72;52.68
25638;BME280;13496;51.040;13.680;2022-12-18T17:36:55;101350.81;;;15.72;52.79
25638;BME280;13496;51.040;13.680;2022-12-18T17:41:57;101347.38;;;15.71;52.67
25638;BME280;13496;51.040;13.680;2022-12-18T17:46:59;101356.06;;;15.72;52.78
25638;BME280;13496;51.040;13.680;2022-12-18T17:52:01;101339.69;;;15.70;52.74
25638;BME280;13496;51.040;13.680;2022-12-18T17:57:04;101322.31;;;15.69;52.83
25638;BME280;13496;51.040;13.680;2022-12-18T18:02:06;101337.06;;;15.70;53.05
25638;BME280;13496;51.040;13.680;2022-12-18T18:07:10;101331.97;;;15.68;52.97
25638;BME280;13496;51.040;13.680;2022-12-18T18:12:11;101324.13;;;15.68;52.85
25638;BME280;13496;51.040;13.680;2022-12-18T18:17:31;101323.97;;;15.70;52.75
25638;BME280;13496;51.040;13.680;2022-12-18T18:22:34;101314.47;;;15.69;52.75
25638;BME280;13496;51.040;13.680;2022-12-18T18:27:36;101316.13;;;15.70;52.75
25638;BME280;13496;51.040;13.680;2022-12-18T18:32:38;101310.06;;;15.69;52.82
25638;BME280;13496;51.040;13.680;2022-12-18T18:37:40;101309.66;;;15.74;52.38
25638;BME280;13496;51.040;13.680;2022-12-18T18:42:42;101300.59;;;15.78;52.13
25638;BME280;13496;51.040;13.680;2022-12-18T18:47:43;101285.88;;;15.87;52.07
25638;BME280;13496;51.040;13.680;2022-12-18T18:52:45;101285.34;;;15.93;51.23
25638;BME280;13496;51.040;13.680;2022-12-18T18:57:47;101284.03;;;15.99;51.35
25638;BME280;13496;51.040;13.680;2022-12-18T19:02:49;101271.91;;;16.07;51.60
25638;BME280;13496;51.040;13.680;2022-12-18T19:07:50;101262.00;;;16.11;51.97
25638;BME280;13496;51.040;13.680;2022-12-18T19:12:52;101267.91;;;16.13;52.24
25638;BME280;13496;51.040;13.680;2022-12-18T19:18:13;101252.91;;;16.15;52.55
25638;BME280;13496;51.040;13.680;2022-12-18T19:23:15;101246.03;;;16.14;52.69
25638;BME280;13496;51.040;13.680;2022-12-18T19:28:17;101237.34;;;16.13;53.08
25638;BME280;13496;51.040;13.680;2022-12-18T19:33:19;101226.97;;;16.12;54.11
25638;BME280;13496;51.040;13.680;2022-12-18T19:38:21;101217.63;;;16.09;54.59
25638;BME280;13496;51.040;13.680;2022-12-18T19:43:22;101203.16;;;16.15;55.44
25638;BME280;13496;51.040;13.680;2022-12-18T19:48:24;101200.81;;;16.21;54.79
25638;BME280;13496;51.040;13.680;2022-12-18T19:53:26;101203.28;;;16.23;54.67
25638;BME280;13496;51.040;13.680;2022-12-18T19:58:27;101195.31;;;16.25;54.42
25638;BME280;13496;51.040;13.680;2022-12-18T20:03:29;101186.63;;;16.24;54.17
25638;BME280;13496;51.040;13.680;2022-12-18T20:08:31;101195.44;;;16.23;54.07
25638;BME280;13496;51.040;13.680;2022-12-18T20:13:33;101188.56;;;16.22;53.76
25638;BME280;13496;51.040;13.680;2022-12-18T20:18:35;101183.59;;;16.19;53.69
25638;BME280;13496;51.040;13.680;2022-12-18T20:23:37;101188.97;;;16.17;53.71
25638;BME280;13496;51.040;13.680;2022-12-18T20:28:38;101199.72;;;16.14;53.70
25638;BME280;13496;51.040;13.680;2022-12-18T20:33:40;101190.22;;;16.13;53.70
25638;BME280;13496;51.040;13.680;2022-12-18T20:38:42;101178.34;;;16.09;53.40
25638;BME280;13496;51.040;13.680;2022-12-18T20:43:44;101183.72;;;16.08;53.62
25638;BME280;13496;51.040;13.680;2022-12-18T20:48:46;101149.28;;;16.03;53.78
25638;BME280;13496;51.040;13.680;2022-12-18T20:53:48;101161.38;;;16.04;53.66
25638;BME280;13496;51.040;13.680;2022-12-18T20:58:50;101160.84;;;16.00;53.58
25638;BME280;13496;51.040;13.680;2022-12-18T21:03:52;101154.78;;;16.00;53.72
25638;BME280;13496;51.040;13.680;2022-12-18T21:08:55;101163.72;;;15.97;53.82
25638;BME280;13496;51.040;13.680;2022-12-18T21:13:57;101165.78;;;15.93;53.78
25638;BME280;13496;51.040;13.680;2022-12-18T21:18:59;101155.56;;;15.90;53.83
25638;BME280;13496;51.040;13.680;2022-12-18T21:24:00;101154.91;;;15.88;53.84
25638;BME280;13496;51.040;13.680;2022-12-18T21:29:05;101152.41;;;15.87;53.83
25638;BME280;13496;51.040;13.680;2022-12-18T21:34:10;101164.00;;;15.84;53.74
25638;BME280;13496;51.040;13.680;2022-12-18T21:39:14;101155.44;;;15.82;53.50
25638;BME280;13496;51.040;13.680;2022-12-18T21:44:17;101152.00;;;15.82;53.35
25638;BME280;13496;51.040;13.680;2022-12-18T21:49:19;101147.72;;;15.81;53.46
25638;BME280;13496;51.040;13.680;2022-12-18T21:54:25;101151.44;;;15.78;53.60
25638;BME280;13496;51.040;13.680;2022-12-18T21:59:32;101135.06;;;15.76;53.46
25638;BME280;13496;51.040;13.680;2022-12-18T22:04:34;101127.31;;;15.75;53.29
25638;BME280;13496;51.040;13.680;2022-12-18T22:09:35;101124.03;;;15.72;53.47
25638;BME280;13496;51.040;13.680;2022-12-18T22:14:37;101131.88;;;15.72;53.32
25638;BME280;13496;51.040;13.680;2022-12-18T22:19:39;101130.34;;;15.70;53.24
25638;BME280;13496;51.040;13.680;2022-12-18T22:24:40;101127.03;;;15.68;53.23
25638;BME280;13496;51.040;13.680;2022-12-18T22:29:42;101121.81;;;15.68;53.10
25638;BME280;13496;51.040;13.680;2022-12-18T22:35:04;101105.44;;;15.66;53.04
25638;BME280;13496;51.040;13.680;2022-12-18T22:40:06;101103.75;;;15.65;52.97
25638;BME280;13496;51.040;13.680;2022-12-18T22:45:08;101101.25;;;15.63;52.80
25638;BME280;13496;51.040;13.680;2022-12-18T22:50:13;101094.50;;;15.61;52.90
25638;BME280;13496;51.040;13.680;2022-12-18T22:55:15;101076.34;;;15.59;52.88
25638;BME280;13496;51.040;13.680;2022-12-18T23:00:17;101073.00;;;15.57;52.62
25638;BME280;13496;51.040;13.680;2022-12-18T23:05:18;101071.38;;;15.56;52.26
25638;BME280;13496;51.040;13.680;2022-12-18T23:10:20;101070.53;;;15.56;52.22
25638;BME280;13496;51.040;13.680;2022-12-18T23:15:22;101064.63;;;15.54;52.40
25638;BME280;13496;51.040;13.680;2022-12-18T23:20:25;101060.34;;;15.53;52.38
25638;BME280;13496;51.040;13.680;2022-12-18T23:25:27;101037.94;;;15.50;52.43
25638;BME280;13496;51.040;13.680;2022-12-18T23:30:29;101028.56;;;15.47;52.38
25638;BME280;13496;51.040;13.680;2022-12-18T23:35:31;101001.69;;;15.45;52.23
25638;BME280;13496;51.040;13.680;2022-12-18T23:40:33;100995.78;;;15.43;52.23
25638;BME280;13496;51.040;13.680;2022-12-18T23:45:38;100988.88;;;15.42;52.22
25638;BME280;13496;51.040;13.680;2022-12-18T23:50:39;100983.66;;;15.42;52.18
25638;BME280;13496;51.040;13.680;2022-12-18T23:55:42;100970.72;;;15.41;51.93
